createdAt,value
2022-10-18T00:02:17.565Z,99497.78
2022-10-18T00:04:44.680Z,99497.78
2022-10-18T00:07:11.746Z,99498.81
2022-10-18T00:09:38.864Z,99497.03
2022-10-18T00:12:05.962Z,99494.44
2022-10-18T00:14:33.041Z,99501.34
2022-10-18T00:17:00.148Z,99495.38
2022-10-18T00:19:29.263Z,99503.31
2022-10-18T00:21:56.611Z,99501.63
2022-10-18T00:24:23.739Z,99507.59
2022-10-18T00:26:50.861Z,99507.59
2022-10-18T00:29:17.963Z,99504.13
2022-10-18T00:31:45.133Z,99508.41
2022-10-18T00:34:12.204Z,99514.66
2022-10-18T00:36:39.271Z,99514.66
2022-10-18T00:39:06.338Z,99506.81
2022-10-18T00:41:33.410Z,99502.47
2022-10-18T00:44:00.527Z,99504.22
2022-10-18T00:46:27.670Z,99495.69
2022-10-18T00:51:41.781Z,99494.59
2022-10-18T00:54:08.887Z,99493.88
2022-10-18T00:56:36.071Z,99498.44
2022-10-18T00:59:03.187Z,99500.28
2022-10-18T01:01:30.322Z,99502.19
2022-10-18T01:03:57.986Z,99497.97
2022-10-18T01:06:25.119Z,99496.22
2022-10-18T01:08:52.255Z,99490.25
2022-10-18T01:11:19.335Z,99497.97
2022-10-18T01:13:46.442Z,99492.78
2022-10-18T01:16:13.524Z,99493.72
2022-10-18T01:18:40.590Z,99491.09
2022-10-18T01:21:07.707Z,99495.47
2022-10-18T01:23:34.788Z,99488.56
2022-10-18T01:26:01.914Z,99487.63
2022-10-18T01:28:29.104Z,99486.81
2022-10-18T01:30:56.339Z,99479.09
2022-10-18T01:33:23.432Z,99484.31
2022-10-18T01:35:50.503Z,99485.16
2022-10-18T01:38:18.028Z,99477.31
2022-10-18T01:40:45.119Z,99480.03
2022-10-18T01:43:12.199Z,99478.28
2022-10-18T01:45:39.269Z,99477.44
2022-10-18T01:48:06.401Z,99470.53
2022-10-18T01:50:33.582Z,99475.75
2022-10-18T01:53:00.657Z,99474.91
2022-10-18T01:55:27.734Z,99471.47
2022-10-18T01:57:54.810Z,99468.88
2022-10-18T02:00:21.875Z,99464.50
2022-10-18T02:02:49.173Z,99457.63
2022-10-18T02:05:16.298Z,99462.81
2022-10-18T02:07:43.688Z,99462.81
2022-10-18T02:10:10.930Z,99459.38
2022-10-18T02:12:38.035Z,99457.72
2022-10-18T02:15:05.139Z,99457.72
2022-10-18T02:17:32.267Z,99462.94
2022-10-18T02:19:59.364Z,99460.34
2022-10-18T02:22:26.657Z,99462.94
2022-10-18T02:24:54.179Z,99463.84
2022-10-18T02:27:21.259Z,99469.06
2022-10-18T02:29:48.341Z,99471.66
2022-10-18T02:32:15.703Z,99470.94
2022-10-18T02:34:42.817Z,99473.53
2022-10-18T02:37:09.907Z,99477.94
2022-10-18T02:39:37.675Z,99479.66
2022-10-18T02:42:08.080Z,99476.22
2022-10-18T02:44:35.172Z,99484.88
2022-10-18T02:47:02.316Z,99474.44
2022-10-18T02:49:29.479Z,99476.22
2022-10-18T02:51:56.569Z,99477.06
2022-10-18T02:54:23.671Z,99478.00
2022-10-18T02:56:50.735Z,99480.59
2022-10-18T02:59:17.823Z,99478.94
2022-10-18T03:01:45.006Z,99477.28
2022-10-18T03:04:12.130Z,99485.94
2022-10-18T03:06:39.260Z,99475.59
2022-10-18T03:09:06.339Z,99473.84
2022-10-18T03:11:33.411Z,99471.22
2022-10-18T03:14:00.480Z,99472.16
2022-10-18T03:16:27.586Z,99475.59
2022-10-18T03:18:54.657Z,99473.91
2022-10-18T03:21:21.729Z,99470.47
2022-10-18T03:23:48.852Z,99470.47
2022-10-18T03:26:15.931Z,99462.66
2022-10-18T03:28:42.998Z,99461.00
2022-10-18T03:31:10.097Z,99455.78
2022-10-18T03:33:37.216Z,99453.25
2022-10-18T03:36:04.309Z,99454.09
2022-10-18T03:38:31.383Z,99461.91
2022-10-18T03:40:58.447Z,99455.03
2022-10-18T03:43:25.527Z,99463.69
2022-10-18T03:45:52.615Z,99459.31
2022-10-18T03:48:19.690Z,99455.03
2022-10-18T03:50:46.771Z,99449.00
2022-10-18T03:53:13.891Z,99449.94
2022-10-18T03:55:40.959Z,99455.88
2022-10-18T03:58:08.071Z,99459.41
2022-10-18T04:00:35.172Z,99454.31
2022-10-18T04:03:02.356Z,99455.97
2022-10-18T04:05:31.104Z,99445.66
2022-10-18T04:07:58.192Z,99445.66
2022-10-18T04:10:25.250Z,99443.03
2022-10-18T04:12:52.318Z,99450.84
2022-10-18T04:15:19.468Z,99453.47
2022-10-18T04:17:46.658Z,99450.03
2022-10-18T04:20:13.768Z,99452.63
2022-10-18T04:22:40.851Z,99447.41
2022-10-18T04:25:07.934Z,99450.03
2022-10-18T04:27:35.227Z,99446.69
2022-10-18T04:30:02.517Z,99450.03
2022-10-18T04:32:29.702Z,99449.28
2022-10-18T04:34:56.779Z,99444.91
2022-10-18T04:37:23.847Z,99440.53
2022-10-18T04:39:53.523Z,99442.31
2022-10-18T04:42:20.956Z,99437.09
2022-10-18T04:44:48.058Z,99437.09
2022-10-18T04:47:15.184Z,99449.28
2022-10-18T04:49:42.332Z,99439.72
2022-10-18T04:52:09.958Z,99440.66
2022-10-18T04:54:37.019Z,99443.25
2022-10-18T04:57:04.127Z,99440.66
2022-10-18T04:59:31.202Z,99435.44
2022-10-18T05:01:58.328Z,99432.84
2022-10-18T05:04:25.718Z,99439.81
2022-10-18T05:06:52.803Z,99432.91
2022-10-18T05:09:22.282Z,99425.94
2022-10-18T05:11:49.380Z,99431.16
2022-10-18T05:14:16.529Z,99423.44
2022-10-18T05:16:43.627Z,99421.66
2022-10-18T05:19:10.757Z,99420.00
2022-10-18T05:21:37.819Z,99415.63
2022-10-18T05:24:04.966Z,99415.63
2022-10-18T05:26:32.142Z,99416.47
2022-10-18T05:28:59.395Z,99421.66
2022-10-18T05:31:26.533Z,99420.00
2022-10-18T05:33:53.615Z,99416.56
2022-10-18T05:36:20.790Z,99412.19
2022-10-18T05:38:48.466Z,99421.66
2022-10-18T05:41:15.542Z,99421.78
2022-10-18T05:43:42.682Z,99418.34
2022-10-18T05:46:14.798Z,99418.34
2022-10-18T05:48:42.388Z,99419.16
2022-10-18T05:51:09.467Z,99425.22
2022-10-18T05:53:37.808Z,99426.97
2022-10-18T05:56:05.449Z,99424.38
2022-10-18T05:58:32.571Z,99427.81
2022-10-18T06:01:00.095Z,99424.38
2022-10-18T06:03:27.773Z,99423.56
2022-10-18T06:05:54.904Z,99426.97
2022-10-18T06:08:22.050Z,99425.28
2022-10-18T06:10:49.144Z,99424.38
2022-10-18T06:13:16.227Z,99429.66
2022-10-18T06:15:43.295Z,99424.47
2022-10-18T06:18:10.376Z,99433.09
2022-10-18T06:20:37.494Z,99436.56
2022-10-18T06:23:04.558Z,99447.81
2022-10-18T06:25:31.766Z,99447.81
2022-10-18T06:27:58.856Z,99440.91
2022-10-18T06:30:25.942Z,99441.78
2022-10-18T06:32:53.034Z,99433.09
2022-10-18T06:35:20.108Z,99428.84
2022-10-18T06:37:47.209Z,99434.03
2022-10-18T06:40:14.346Z,99442.69
2022-10-18T06:42:43.540Z,99445.28
2022-10-18T06:45:10.696Z,99448.72
2022-10-18T06:47:37.905Z,99440.91
2022-10-18T06:50:05.031Z,99446.13
2022-10-18T06:52:32.329Z,99440.09
2022-10-18T06:54:59.587Z,99447.00
2022-10-18T06:57:26.649Z,99438.41
2022-10-18T06:59:53.717Z,99437.47
2022-10-18T07:02:20.814Z,99438.41
2022-10-18T07:04:47.960Z,99435.81
2022-10-18T07:07:15.053Z,99440.09
2022-10-18T07:09:42.184Z,99435.81
2022-10-18T07:12:11.977Z,99435.81
2022-10-18T07:14:39.145Z,99434.16
2022-10-18T07:17:06.404Z,99446.13
2022-10-18T07:19:33.483Z,99442.69
2022-10-18T07:22:00.595Z,99443.53
2022-10-18T07:24:27.732Z,99450.44
2022-10-18T07:26:54.839Z,99453.94
2022-10-18T07:29:21.917Z,99461.75
2022-10-18T07:31:49.041Z,99460.00
2022-10-18T07:34:16.154Z,99461.69
2022-10-18T07:36:43.352Z,99448.72
2022-10-18T07:39:10.971Z,99456.47
2022-10-18T07:41:38.246Z,99455.72
2022-10-18T07:44:05.324Z,99455.63
2022-10-18T07:46:32.470Z,99453.03
2022-10-18T07:48:59.793Z,99456.47
2022-10-18T07:51:27.791Z,99456.47
2022-10-18T07:53:55.013Z,99459.06
2022-10-18T07:56:22.187Z,99464.28
2022-10-18T07:58:51.223Z,99463.34
2022-10-18T08:01:18.409Z,99465.13
2022-10-18T08:03:45.550Z,99456.47
2022-10-18T08:06:12.781Z,99463.16
2022-10-18T08:08:40.626Z,99455.34
2022-10-18T08:11:07.784Z,99468.25
2022-10-18T08:13:34.909Z,99457.75
2022-10-18T08:16:01.996Z,99469.09
2022-10-18T08:18:29.174Z,99469.00
2022-10-18T08:20:56.288Z,99473.28
2022-10-18T08:23:23.394Z,99472.34
2022-10-18T08:25:50.485Z,99475.81
2022-10-18T08:28:17.668Z,99479.47
2022-10-18T08:30:44.782Z,99480.13
2022-10-18T08:33:11.868Z,99479.41
2022-10-18T08:35:38.946Z,99480.41
2022-10-18T08:38:06.208Z,99482.09
2022-10-18T08:40:34.782Z,99471.59
2022-10-18T08:43:01.976Z,99469.88
2022-10-18T08:45:41.489Z,99480.22
2022-10-18T08:48:09.699Z,99475.75
2022-10-18T08:50:37.809Z,99470.44
2022-10-18T08:53:04.920Z,99473.78
2022-10-18T08:55:36.360Z,99469.13
2022-10-18T08:58:03.772Z,99468.38
2022-10-18T09:00:30.838Z,99465.97
2022-10-18T09:02:57.981Z,99459.72
2022-10-18T09:05:25.101Z,99459.63
2022-10-18T09:07:52.583Z,99459.72
2022-10-18T09:10:19.691Z,99455.28
2022-10-18T09:12:46.767Z,99459.53
2022-10-18T09:15:14.074Z,99462.78
2022-10-18T09:17:41.254Z,99466.94
2022-10-18T09:20:09.433Z,99458.22
2022-10-18T09:22:36.789Z,99462.47
2022-10-18T09:25:04.008Z,99461.53
2022-10-18T09:27:31.739Z,99460.72
2022-10-18T09:29:58.836Z,99471.06
2022-10-18T09:32:25.903Z,99466.75
2022-10-18T09:34:53.080Z,99472.78
2022-10-18T09:37:20.193Z,99470.19
2022-10-18T09:39:47.320Z,99483.13
2022-10-18T09:42:14.395Z,99479.59
2022-10-18T09:44:41.458Z,99474.28
2022-10-18T09:47:09.816Z,99472.53
2022-10-18T09:49:38.450Z,99480.34
2022-10-18T09:52:05.537Z,99480.44
2022-10-18T09:54:32.663Z,99481.19
2022-10-18T09:56:59.745Z,99482.00
2022-10-18T09:59:26.829Z,99480.22
2022-10-18T10:01:53.932Z,99479.41
2022-10-18T10:04:21.015Z,99478.56
2022-10-18T10:06:48.248Z,99487.31
2022-10-18T10:09:15.380Z,99484.69
2022-10-18T10:11:45.302Z,99484.81
2022-10-18T10:14:12.480Z,99482.94
2022-10-18T10:16:39.608Z,99482.00
2022-10-18T10:19:06.681Z,99478.47
2022-10-18T10:21:33.759Z,99478.25
2022-10-18T10:24:00.840Z,99479.94
2022-10-18T10:26:27.931Z,99471.28
2022-10-18T10:28:55.110Z,99481.81
2022-10-18T10:31:22.269Z,99473.88
2022-10-18T10:33:49.482Z,99481.19
2022-10-18T10:36:16.634Z,99479.41
2022-10-18T10:38:43.731Z,99470.44
2022-10-18T10:41:10.799Z,99472.31
2022-10-18T10:43:40.051Z,99467.00
2022-10-18T10:46:07.542Z,99469.31
2022-10-18T10:48:34.695Z,99470.97
2022-10-18T10:51:02.088Z,99459.63
2022-10-18T10:53:29.739Z,99460.66
2022-10-18T10:55:56.855Z,99458.50
2022-10-18T10:58:23.930Z,99463.91
2022-10-18T11:00:51.068Z,99457.03
2022-10-18T11:03:33.756Z,99463.06
2022-10-18T11:06:01.947Z,99470.97
2022-10-18T11:08:29.229Z,99475.28
2022-10-18T11:10:56.392Z,99470.97
2022-10-18T11:13:24.116Z,99481.41
2022-10-18T11:15:51.203Z,99484.94
2022-10-18T11:18:18.342Z,99480.38
2022-10-18T11:20:45.417Z,99486.41
2022-10-18T11:23:12.508Z,99478.78
2022-10-18T11:25:39.610Z,99472.66
2022-10-18T11:28:09.545Z,99470.78
2022-10-18T11:30:36.726Z,99462.56
2022-10-18T11:33:03.850Z,99458.06
2022-10-18T11:35:30.924Z,99463.28
2022-10-18T11:37:59.120Z,99459.31
2022-10-18T11:40:26.192Z,99455.66
2022-10-18T11:42:53.284Z,99452.44
2022-10-18T11:45:22.862Z,99454.94
2022-10-18T11:47:53.540Z,99448.69
2022-10-18T11:50:26.311Z,99447.94
2022-10-18T11:52:53.491Z,99442.75
2022-10-18T11:55:20.626Z,99447.00
2022-10-18T11:57:47.771Z,99447.00
2022-10-18T12:00:14.869Z,99447.94
2022-10-18T12:02:42.071Z,99447.84
2022-10-18T12:05:22.984Z,99440.78
2022-10-18T12:07:51.235Z,99440.78
2022-10-18T12:10:26.220Z,99441.59
2022-10-18T12:13:05.215Z,99440.56
2022-10-18T12:15:32.318Z,99438.78
2022-10-18T12:17:59.406Z,99432.75
2022-10-18T12:20:26.511Z,99434.53
2022-10-18T12:22:53.635Z,99442.34
2022-10-18T12:25:20.858Z,99448.28
2022-10-18T12:27:47.973Z,99436.06
2022-10-18T12:30:15.093Z,99443.19
2022-10-18T12:32:56.447Z,99446.72
2022-10-18T12:35:29.307Z,99442.16
2022-10-18T12:37:56.439Z,99440.47
2022-10-18T12:40:23.573Z,99442.22
2022-10-18T12:42:50.635Z,99437.97
2022-10-18T12:45:17.703Z,99441.28
2022-10-18T12:47:44.770Z,99439.53
2022-10-18T12:50:11.865Z,99441.19
2022-10-18T12:52:38.947Z,99437.66
2022-10-18T12:55:06.033Z,99434.22
2022-10-18T12:57:33.360Z,99437.66
2022-10-18T13:00:00.534Z,99430.78
2022-10-18T13:02:27.680Z,99442.97
2022-10-18T13:04:56.830Z,99435.16
2022-10-18T13:07:23.924Z,99444.75
2022-10-18T13:09:51.268Z,99436.00
2022-10-18T13:12:18.419Z,99437.75
2022-10-18T13:14:59.077Z,99436.81
2022-10-18T13:17:32.726Z,99433.47
2022-10-18T13:20:24.142Z,99434.31
2022-10-18T13:22:47.204Z,99438.59
2022-10-18T13:25:14.327Z,99442.88
2022-10-18T13:27:41.516Z,99448.09
2022-10-18T13:30:08.585Z,99443.69
2022-10-18T13:32:36.132Z,99436.00
2022-10-18T13:35:03.271Z,99441.09
2022-10-18T13:37:30.754Z,99447.13
2022-10-18T13:39:57.834Z,99448.09
2022-10-18T13:42:24.987Z,99454.13
2022-10-18T13:44:52.085Z,99452.34
2022-10-18T13:47:19.225Z,99453.31
2022-10-18T13:49:47.219Z,99455.81
2022-10-18T13:52:14.302Z,99468.94
2022-10-18T13:54:41.377Z,99463.72
2022-10-18T13:57:08.531Z,99470.09
2022-10-18T14:02:42.954Z,99479.34
2022-10-18T14:05:23.752Z,99473.50
2022-10-18T14:07:51.955Z,99475.28
2022-10-18T14:10:19.055Z,99481.41
2022-10-18T14:12:46.124Z,99486.41
2022-10-18T14:15:13.204Z,99477.66
2022-10-18T14:17:42.672Z,99479.44
2022-10-18T14:20:10.271Z,99484.75
2022-10-18T14:22:37.679Z,99481.41
2022-10-18T14:25:04.767Z,99480.56
2022-10-18T14:27:36.073Z,99480.69
2022-10-18T14:30:03.398Z,99478.06
2022-10-18T14:32:30.506Z,99475.53
2022-10-18T14:35:27.168Z,99477.31
2022-10-18T14:37:44.661Z,99479.94
2022-10-18T14:40:11.759Z,99480.75
2022-10-18T14:42:38.875Z,99478.25
2022-10-18T14:45:05.973Z,99471.28
2022-10-18T14:47:36.243Z,99474.81
2022-10-18T14:50:03.478Z,99467.00
2022-10-18T14:52:35.127Z,99467.84
2022-10-18T14:55:02.646Z,99458.34
2022-10-18T14:57:29.976Z,99455.75
2022-10-18T14:59:58.179Z,99459.19
2022-10-18T15:02:25.255Z,99460.13
2022-10-18T15:04:52.344Z,99455.00
2022-10-18T15:07:19.487Z,99460.13
2022-10-18T15:09:46.546Z,99455.75
2022-10-18T15:12:13.630Z,99456.78
2022-10-18T15:14:40.698Z,99465.44
2022-10-18T15:17:07.767Z,99461.03
2022-10-18T15:19:35.067Z,99456.78
2022-10-18T15:24:49.308Z,99462.94
2022-10-18T15:27:16.541Z,99462.94
2022-10-18T15:29:44.172Z,99467.31
2022-10-18T15:32:11.239Z,99471.66
2022-10-18T15:34:38.335Z,99469.91
2022-10-18T15:37:05.401Z,99471.66
2022-10-18T15:39:32.483Z,99477.75
2022-10-18T15:41:59.541Z,99482.94
2022-10-18T15:44:26.718Z,99481.25
2022-10-18T15:46:53.859Z,99471.66
2022-10-18T15:49:21.001Z,99470.75
2022-10-18T15:51:48.188Z,99477.63
2022-10-18T15:54:15.266Z,99475.13
2022-10-18T15:56:42.344Z,99475.13
2022-10-18T15:59:09.427Z,99476.16
2022-10-18T16:01:36.603Z,99476.97
2022-10-18T16:04:03.804Z,99470.81
2022-10-18T16:06:30.917Z,99472.59
2022-10-18T16:08:57.982Z,99477.94
2022-10-18T16:11:25.239Z,99477.09
2022-10-18T16:13:55.119Z,99477.94
2022-10-18T16:16:25.034Z,99477.09
2022-10-18T16:18:52.099Z,99491.78
2022-10-18T16:21:19.336Z,99480.63
2022-10-18T16:23:46.422Z,99481.56
2022-10-18T16:26:13.548Z,99486.78
2022-10-18T16:28:40.649Z,99491.03
2022-10-18T16:31:07.861Z,99491.97
2022-10-18T16:33:36.743Z,99493.66
2022-10-18T16:36:04.805Z,99499.81
2022-10-18T16:38:34.834Z,99508.44
2022-10-18T16:41:02.294Z,99504.06
2022-10-18T16:43:29.486Z,99509.28
2022-10-18T16:45:56.694Z,99512.00
2022-10-18T16:48:23.796Z,99511.16
2022-10-18T16:50:50.952Z,99517.22
2022-10-18T16:53:19.540Z,99518.78
2022-10-18T16:55:46.632Z,99517.09
2022-10-18T16:58:13.777Z,99531.00
2022-10-18T17:00:41.416Z,99527.25
2022-10-18T17:03:08.780Z,99541.13
2022-10-18T17:05:35.853Z,99539.34
2022-10-18T17:08:02.967Z,99547.16
2022-10-18T17:10:30.134Z,99546.41
2022-10-18T17:12:57.270Z,99553.31
2022-10-18T17:15:24.382Z,99560.28
2022-10-18T17:17:51.475Z,99552.47
2022-10-18T17:20:18.548Z,99549.84
2022-10-18T17:22:45.675Z,99550.72
2022-10-18T17:25:12.760Z,99560.19
2022-10-18T17:27:39.830Z,99557.59
2022-10-18T17:30:06.913Z,99567.19
2022-10-18T17:32:34.028Z,99557.59
2022-10-18T17:35:01.162Z,99564.59
2022-10-18T17:37:28.268Z,99560.19
2022-10-18T17:39:55.516Z,99561.88
2022-10-18T17:42:22.700Z,99567.06
2022-10-18T17:44:51.894Z,99562.81
2022-10-18T17:47:20.147Z,99564.47
2022-10-18T17:49:47.861Z,99577.44
2022-10-18T17:52:15.180Z,99567.06
2022-10-18T17:54:42.304Z,99563.53
2022-10-18T17:57:09.406Z,99571.28
2022-10-18T17:59:36.528Z,99569.59
2022-10-18T18:02:03.670Z,99566.13
2022-10-18T18:04:30.879Z,99566.13
2022-10-18T18:06:59.662Z,99565.22
2022-10-18T18:09:27.506Z,99567.84
2022-10-18T18:11:55.392Z,99569.69
2022-10-18T18:14:22.500Z,99568.84
2022-10-18T18:16:49.589Z,99569.59
2022-10-18T18:19:18.981Z,99568.75
2022-10-18T18:21:46.221Z,99571.34
2022-10-18T18:24:14.126Z,99573.88
2022-10-18T18:26:41.304Z,99577.44
2022-10-18T18:29:08.415Z,99569.59
2022-10-18T18:31:40.336Z,99579.16
2022-10-18T18:34:10.573Z,99577.44
2022-10-18T18:36:37.710Z,99577.50
2022-10-18T18:39:05.733Z,99576.56
2022-10-18T18:41:32.964Z,99573.97
2022-10-18T18:44:00.080Z,99585.03
2022-10-18T18:46:27.375Z,99575.25
2022-10-18T18:48:54.463Z,99571.63
2022-10-18T18:51:21.582Z,99570.59
2022-10-18T18:53:48.737Z,99581.84
2022-10-18T18:56:16.003Z,99573.09
2022-10-18T18:58:44.120Z,99578.19
2022-10-18T19:01:11.230Z,99573.84
2022-10-18T19:03:38.725Z,99581.56
2022-10-18T19:06:05.846Z,99582.50
2022-10-18T19:08:32.931Z,99569.47
2022-10-18T19:11:00.012Z,99571.13
2022-10-18T19:13:27.077Z,99572.06
2022-10-18T19:15:54.140Z,99568.63
2022-10-18T19:18:23.921Z,99572.06
2022-10-18T19:20:51.215Z,99573.09
2022-10-18T19:23:18.364Z,99571.44
2022-10-18T19:25:45.575Z,99572.25
2022-10-18T19:28:12.654Z,99567.88
2022-10-18T19:30:39.766Z,99565.28
2022-10-18T19:33:06.845Z,99566.94
2022-10-18T19:35:33.928Z,99570.38
2022-10-18T19:38:03.281Z,99579.13
2022-10-18T19:40:30.359Z,99575.69
2022-10-18T19:42:57.422Z,99580.09
2022-10-18T19:45:24.498Z,99579.13
2022-10-18T19:47:51.579Z,99579.13
2022-10-18T19:50:18.691Z,99583.53
2022-10-18T19:52:45.823Z,99585.19
2022-10-18T19:55:12.911Z,99581.84
2022-10-18T19:57:40.018Z,99581.03
2022-10-18T20:00:11.340Z,99586.97
2022-10-18T20:02:41.491Z,99592.28
2022-10-18T20:05:08.599Z,99592.19
2022-10-18T20:07:36.478Z,99586.97
2022-10-18T20:10:03.726Z,99583.63
2022-10-18T20:12:31.205Z,99592.28
2022-10-18T20:14:58.535Z,99595.72
2022-10-18T20:17:25.682Z,99593.13
2022-10-18T20:19:52.775Z,99591.34
2022-10-18T20:22:19.895Z,99592.19
2022-10-18T20:24:47.008Z,99588.72
2022-10-18T20:27:14.109Z,99587.78
2022-10-18T20:29:41.204Z,99590.41
2022-10-18T20:32:08.830Z,99604.28
2022-10-18T20:34:35.920Z,99594.72
2022-10-18T20:37:02.989Z,99604.28
2022-10-18T20:39:30.124Z,99599.06
2022-10-18T20:41:57.216Z,99594.72
2022-10-18T20:44:26.626Z,99596.44
2022-10-18T20:46:53.702Z,99598.63
2022-10-18T20:49:20.957Z,99598.16
2022-10-18T20:51:48.035Z,99602.75
2022-10-18T20:54:15.155Z,99607.19
2022-10-18T20:56:42.271Z,99600.44
2022-10-18T20:59:10.213Z,99595.41
2022-10-18T21:01:37.600Z,99603.22
2022-10-18T21:04:04.790Z,99605.06
2022-10-18T21:06:31.901Z,99602.47
2022-10-18T21:08:59.016Z,99599.13
2022-10-18T21:11:26.188Z,99594.84
2022-10-18T21:13:53.343Z,99597.53
2022-10-18T21:16:20.439Z,99601.81
2022-10-18T21:18:47.574Z,99600.06
2022-10-18T21:21:14.740Z,99598.28
2022-10-18T21:23:41.923Z,99595.69
2022-10-18T21:26:09.020Z,99597.47
2022-10-18T21:28:36.169Z,99599.22
2022-10-18T21:31:03.246Z,99595.75
2022-10-18T21:33:30.348Z,99595.75
2022-10-18T21:35:57.422Z,99596.72
2022-10-18T21:38:24.502Z,99588.06
2022-10-18T21:40:51.558Z,99591.50
2022-10-18T21:43:18.618Z,99589.84
2022-10-18T21:45:45.701Z,99585.44
2022-10-18T21:48:12.874Z,99595.88
2022-10-18T21:50:39.955Z,99591.50
2022-10-18T21:53:07.028Z,99589.84
2022-10-18T21:55:34.162Z,99583.78
2022-10-18T21:58:01.224Z,99584.63
2022-10-18T22:00:28.315Z,99586.28
2022-10-18T22:02:55.408Z,99580.34
2022-10-18T22:05:22.507Z,99575.97
2022-10-18T22:07:49.566Z,99586.41
2022-10-18T22:10:16.638Z,99583.88
2022-10-18T22:12:43.734Z,99578.66
2022-10-18T22:15:10.804Z,99578.56
2022-10-18T22:17:37.892Z,99582.09
2022-10-18T22:20:04.998Z,99583.03
2022-10-18T22:22:32.319Z,99569.16
2022-10-18T22:24:59.425Z,99567.41
2022-10-18T22:27:26.528Z,99565.72
2022-10-18T22:29:53.609Z,99563.13
2022-10-18T22:32:20.668Z,99569.16
2022-10-18T22:34:47.916Z,99568.34
2022-10-18T22:37:15.094Z,99572.72
2022-10-18T22:39:42.149Z,99570.19
2022-10-18T22:42:09.341Z,99571.00
2022-10-18T22:44:36.435Z,99568.41
2022-10-18T22:47:03.534Z,99575.31
2022-10-18T22:49:30.591Z,99573.63
2022-10-18T22:51:57.683Z,99570.19
2022-10-18T22:54:24.747Z,99569.34
2022-10-18T22:56:51.862Z,99559.75
2022-10-18T22:59:18.988Z,99564.16
2022-10-18T23:01:46.074Z,99567.69
2022-10-18T23:04:13.167Z,99566.75
2022-10-18T23:06:40.254Z,99560.69
2022-10-18T23:09:07.383Z,99554.56
2022-10-18T23:11:34.474Z,99554.66
2022-10-18T23:14:01.593Z,99568.53
2022-10-18T23:16:29.550Z,99565.09
2022-10-18T23:18:56.615Z,99555.59
2022-10-18T23:21:24.402Z,99559.03
2022-10-18T23:23:51.627Z,99555.59
2022-10-18T23:26:18.771Z,99558.22
2022-10-18T23:28:45.917Z,99563.41
2022-10-18T23:31:13.045Z,99566.94
2022-10-18T23:33:40.121Z,99566.94
2022-10-18T23:36:07.359Z,99563.50
2022-10-18T23:38:34.529Z,99557.34
2022-10-18T23:41:01.609Z,99563.50
2022-10-18T23:43:28.759Z,99575.59
2022-10-18T23:45:55.960Z,99575.59
2022-10-18T23:48:23.234Z,99572.97
2022-10-18T23:50:50.304Z,99573.91
2022-10-18T23:53:19.535Z,99578.28
2022-10-18T23:55:46.601Z,99577.34
2022-10-18T23:58:13.694Z,99573.91
